KCPR/CPR METAR and TAF weather

Enter ICAO airport designator
Station Type Date Time Source
KCPR METAR 2018/07/21 10:53 UTC NOAA

KCPR 211053Z 00000KT 10SM CLR 14/13 A3012 RMK AO2 SLP121 T01440128


Station Type Date Time Source
KCPR Decoded METAR 2018/07/21 10:53 UTC NOAA

NATRONA COUNTY INTERNATIONAL AIRPORT , WY, United States (KCPR) 42-54N 106-28W 1621M
Jul 21, 2018 - 06:53 AM EDT / 2018.07.21 1053 UTC
Wind: Calm:0
Visibility: 10 mile(s):0
Sky conditions: clear
Temperature: 57.9 F (14.4 C)
Dew Point: 55.0 F (12.8 C)
Relative Humidity: 90%
Pressure (altimeter): 30.12 in. Hg (1019 hPa)
ob: KCPR 211053Z 00000KT 10SM CLR 14/13 A3012 RMK AO2 SLP121 T01440128
cycle: 11

Station Type Date Time Source
KCPR TAF 2018/07/21 12:40 UTC NOAA

TAF KCPR 211137Z 2112/2212 23007KT P6SM SCT200
FM212300 23010G18KT P6SM VCSH SCT110 BKN200
FM220300 03009KT P6SM SCT120
FM220700 23007KT P6SM SCT200


Example: see airport list